sensor_id;sensor_type;location;lat;lon;timestamp;P1;durP1;ratioP1;P2;durP2;ratioP2
9465;SDS011;4771;48.726;9.006;2023-04-15T00:01:39;2.73;;;1.77;;
9465;SDS011;4771;48.726;9.006;2023-04-15T00:04:06;5.13;;;2.00;;
9465;SDS011;4771;48.726;9.006;2023-04-15T00:06:35;4.87;;;2.03;;
9465;SDS011;4771;48.726;9.006;2023-04-15T00:09:03;3.97;;;1.97;;
9465;SDS011;4771;48.726;9.006;2023-04-15T00:11:30;4.40;;;2.17;;
9465;SDS011;4771;48.726;9.006;2023-04-15T00:13:57;4.60;;;2.17;;
9465;SDS011;4771;48.726;9.006;2023-04-15T00:16:24;4.63;;;2.10;;
9465;SDS011;4771;48.726;9.006;2023-04-15T00:18:52;4.80;;;2.07;;
9465;SDS011;4771;48.726;9.006;2023-04-15T00:21:19;5.70;;;2.10;;
9465;SDS011;4771;48.726;9.006;2023-04-15T00:23:46;7.17;;;2.40;;
9465;SDS011;4771;48.726;9.006;2023-04-15T00:26:17;3.87;;;2.57;;
9465;SDS011;4771;48.726;9.006;2023-04-15T00:28:44;5.30;;;2.70;;
9465;SDS011;4771;48.726;9.006;2023-04-15T00:31:11;7.77;;;3.37;;
9465;SDS011;4771;48.726;9.006;2023-04-15T00:33:39;8.37;;;2.70;;
9465;SDS011;4771;48.726;9.006;2023-04-15T00:36:06;3.73;;;2.70;;
9465;SDS011;4771;48.726;9.006;2023-04-15T00:38:34;5.90;;;3.23;;
9465;SDS011;4771;48.726;9.006;2023-04-15T00:41:03;4.43;;;2.87;;
9465;SDS011;4771;48.726;9.006;2023-04-15T00:43:33;7.20;;;3.13;;
9465;SDS011;4771;48.726;9.006;2023-04-15T00:45:59;5.40;;;3.30;;
9465;SDS011;4771;48.726;9.006;2023-04-15T00:48:28;6.03;;;2.93;;
9465;SDS011;4771;48.726;9.006;2023-04-15T00:50:56;6.03;;;2.80;;
9465;SDS011;4771;48.726;9.006;2023-04-15T00:53:23;5.30;;;2.40;;
9465;SDS011;4771;48.726;9.006;2023-04-15T00:55:50;5.60;;;2.57;;
9465;SDS011;4771;48.726;9.006;2023-04-15T00:58:17;5.00;;;2.10;;
9465;SDS011;4771;48.726;9.006;2023-04-15T01:00:45;4.63;;;2.47;;
9465;SDS011;4771;48.726;9.006;2023-04-15T01:03:13;5.17;;;2.43;;
9465;SDS011;4771;48.726;9.006;2023-04-15T01:05:40;5.17;;;2.00;;
9465;SDS011;4771;48.726;9.006;2023-04-15T01:08:07;3.57;;;2.20;;
9465;SDS011;4771;48.726;9.006;2023-04-15T01:10:34;5.07;;;2.37;;
9465;SDS011;4771;48.726;9.006;2023-04-15T01:13:01;5.90;;;2.20;;
9465;SDS011;4771;48.726;9.006;2023-04-15T01:15:29;5.97;;;2.37;;
9465;SDS011;4771;48.726;9.006;2023-04-15T01:17:57;3.40;;;2.30;;
9465;SDS011;4771;48.726;9.006;2023-04-15T01:20:25;3.63;;;2.67;;
9465;SDS011;4771;48.726;9.006;2023-04-15T01:22:52;5.50;;;2.40;;
9465;SDS011;4771;48.726;9.006;2023-04-15T01:25:26;4.13;;;2.40;;
9465;SDS011;4771;48.726;9.006;2023-04-15T01:27:56;6.47;;;2.40;;
9465;SDS011;4771;48.726;9.006;2023-04-15T01:30:23;3.83;;;2.43;;
9465;SDS011;4771;48.726;9.006;2023-04-15T01:32:51;4.30;;;2.40;;
9465;SDS011;4771;48.726;9.006;2023-04-15T01:35:17;4.77;;;2.33;;
9465;SDS011;4771;48.726;9.006;2023-04-15T01:37:45;4.27;;;2.67;;
9465;SDS011;4771;48.726;9.006;2023-04-15T01:40:12;5.00;;;2.70;;
9465;SDS011;4771;48.726;9.006;2023-04-15T01:42:40;5.47;;;2.83;;
9465;SDS011;4771;48.726;9.006;2023-04-15T01:45:08;8.60;;;2.57;;
9465;SDS011;4771;48.726;9.006;2023-04-15T01:47:35;4.53;;;2.90;;
9465;SDS011;4771;48.726;9.006;2023-04-15T01:50:05;7.50;;;3.10;;
9465;SDS011;4771;48.726;9.006;2023-04-15T01:52:32;7.13;;;3.30;;
9465;SDS011;4771;48.726;9.006;2023-04-15T01:54:59;6.87;;;2.93;;
9465;SDS011;4771;48.726;9.006;2023-04-15T01:57:26;4.80;;;2.67;;
9465;SDS011;4771;48.726;9.006;2023-04-15T01:59:55;6.00;;;2.90;;
9465;SDS011;4771;48.726;9.006;2023-04-15T02:02:21;7.67;;;3.10;;
9465;SDS011;4771;48.726;9.006;2023-04-15T02:04:48;7.00;;;3.00;;
9465;SDS011;4771;48.726;9.006;2023-04-15T02:07:15;6.80;;;2.67;;
9465;SDS011;4771;48.726;9.006;2023-04-15T02:09:42;4.77;;;3.00;;
9465;SDS011;4771;48.726;9.006;2023-04-15T02:12:10;5.17;;;2.80;;
9465;SDS011;4771;48.726;9.006;2023-04-15T02:14:37;3.97;;;2.83;;
9465;SDS011;4771;48.726;9.006;2023-04-15T02:17:06;5.40;;;2.87;;
9465;SDS011;4771;48.726;9.006;2023-04-15T02:19:33;5.63;;;2.93;;
9465;SDS011;4771;48.726;9.006;2023-04-15T02:21:59;5.23;;;2.83;;
9465;SDS011;4771;48.726;9.006;2023-04-15T02:24:27;5.97;;;3.00;;
9465;SDS011;4771;48.726;9.006;2023-04-15T02:26:54;5.53;;;3.20;;
9465;SDS011;4771;48.726;9.006;2023-04-15T02:29:21;5.57;;;3.37;;
9465;SDS011;4771;48.726;9.006;2023-04-15T02:31:48;8.53;;;3.30;;
9465;SDS011;4771;48.726;9.006;2023-04-15T02:34:16;7.67;;;3.47;;
9465;SDS011;4771;48.726;9.006;2023-04-15T02:36:43;7.33;;;2.97;;
9465;SDS011;4771;48.726;9.006;2023-04-15T02:39:11;6.37;;;3.30;;
9465;SDS011;4771;48.726;9.006;2023-04-15T02:41:40;6.33;;;2.90;;
9465;SDS011;4771;48.726;9.006;2023-04-15T02:44:11;5.87;;;3.00;;
9465;SDS011;4771;48.726;9.006;2023-04-15T02:46:38;6.10;;;3.40;;
9465;SDS011;4771;48.726;9.006;2023-04-15T02:49:05;4.33;;;2.77;;
9465;SDS011;4771;48.726;9.006;2023-04-15T02:51:34;6.93;;;3.10;;
9465;SDS011;4771;48.726;9.006;2023-04-15T02:54:01;6.90;;;3.30;;
9465;SDS011;4771;48.726;9.006;2023-04-15T02:56:28;4.97;;;3.00;;
9465;SDS011;4771;48.726;9.006;2023-04-15T02:58:55;6.13;;;2.97;;
9465;SDS011;4771;48.726;9.006;2023-04-15T03:01:22;5.83;;;3.20;;
9465;SDS011;4771;48.726;9.006;2023-04-15T03:03:50;5.03;;;3.37;;
9465;SDS011;4771;48.726;9.006;2023-04-15T03:06:17;4.23;;;2.87;;
9465;SDS011;4771;48.726;9.006;2023-04-15T03:08:45;4.40;;;3.03;;
9465;SDS011;4771;48.726;9.006;2023-04-15T03:11:12;5.30;;;2.73;;
9465;SDS011;4771;48.726;9.006;2023-04-15T03:13:40;5.87;;;2.93;;
9465;SDS011;4771;48.726;9.006;2023-04-15T03:16:07;4.57;;;2.57;;
9465;SDS011;4771;48.726;9.006;2023-04-15T03:18:35;4.97;;;2.90;;
9465;SDS011;4771;48.726;9.006;2023-04-15T03:21:02;7.60;;;3.20;;
9465;SDS011;4771;48.726;9.006;2023-04-15T03:23:29;6.27;;;3.20;;
9465;SDS011;4771;48.726;9.006;2023-04-15T03:25:59;6.50;;;3.33;;
9465;SDS011;4771;48.726;9.006;2023-04-15T03:28:27;3.83;;;2.50;;
9465;SDS011;4771;48.726;9.006;2023-04-15T03:30:54;3.80;;;2.80;;
9465;SDS011;4771;48.726;9.006;2023-04-15T03:33:21;5.80;;;3.20;;
9465;SDS011;4771;48.726;9.006;2023-04-15T03:35:48;7.03;;;3.40;;
9465;SDS011;4771;48.726;9.006;2023-04-15T03:38:15;4.37;;;2.83;;
9465;SDS011;4771;48.726;9.006;2023-04-15T03:40:42;4.40;;;3.10;;
9465;SDS011;4771;48.726;9.006;2023-04-15T03:43:12;7.47;;;2.90;;
9465;SDS011;4771;48.726;9.006;2023-04-15T03:45:39;4.17;;;2.70;;
9465;SDS011;4771;48.726;9.006;2023-04-15T03:48:06;3.70;;;2.67;;
9465;SDS011;4771;48.726;9.006;2023-04-15T03:50:32;6.33;;;2.90;;
9465;SDS011;4771;48.726;9.006;2023-04-15T03:52:59;7.33;;;3.10;;
9465;SDS011;4771;48.726;9.006;2023-04-15T03:55:26;5.90;;;3.07;;
9465;SDS011;4771;48.726;9.006;2023-04-15T03:57:53;3.93;;;2.57;;
9465;SDS011;4771;48.726;9.006;2023-04-15T04:00:22;3.53;;;2.67;;
9465;SDS011;4771;48.726;9.006;2023-04-15T04:02:48;4.93;;;3.20;;
9465;SDS011;4771;48.726;9.006;2023-04-15T04:05:15;5.23;;;2.97;;
9465;SDS011;4771;48.726;9.006;2023-04-15T04:07:42;6.27;;;2.80;;
9465;SDS011;4771;48.726;9.006;2023-04-15T04:10:09;5.73;;;3.10;;
9465;SDS011;4771;48.726;9.006;2023-04-15T04:12:36;5.77;;;2.67;;
9465;SDS011;4771;48.726;9.006;2023-04-15T04:15:04;5.37;;;2.70;;
9465;SDS011;4771;48.726;9.006;2023-04-15T04:17:33;4.73;;;2.47;;
9465;SDS011;4771;48.726;9.006;2023-04-15T04:20:00;3.93;;;2.90;;
9465;SDS011;4771;48.726;9.006;2023-04-15T04:22:27;7.13;;;2.67;;
9465;SDS011;4771;48.726;9.006;2023-04-15T04:24:54;4.70;;;2.70;;
9465;SDS011;4771;48.726;9.006;2023-04-15T04:27:23;5.60;;;2.80;;
9465;SDS011;4771;48.726;9.006;2023-04-15T04:29:50;5.43;;;2.60;;
9465;SDS011;4771;48.726;9.006;2023-04-15T04:32:17;4.23;;;2.60;;
9465;SDS011;4771;48.726;9.006;2023-04-15T04:34:45;6.17;;;3.17;;
9465;SDS011;4771;48.726;9.006;2023-04-15T04:37:13;6.90;;;3.70;;
9465;SDS011;4771;48.726;9.006;2023-04-15T04:39:40;9.57;;;4.10;;
9465;SDS011;4771;48.726;9.006;2023-04-15T04:42:07;7.93;;;4.13;;
9465;SDS011;4771;48.726;9.006;2023-04-15T04:44:33;4.80;;;3.53;;
9465;SDS011;4771;48.726;9.006;2023-04-15T04:47:01;6.33;;;3.30;;
9465;SDS011;4771;48.726;9.006;2023-04-15T04:49:28;5.93;;;2.60;;
9465;SDS011;4771;48.726;9.006;2023-04-15T04:51:56;6.40;;;3.03;;
9465;SDS011;4771;48.726;9.006;2023-04-15T04:54:23;9.03;;;2.93;;
9465;SDS011;4771;48.726;9.006;2023-04-15T04:56:50;5.20;;;2.70;;
9465;SDS011;4771;48.726;9.006;2023-04-15T04:59:17;5.20;;;2.73;;
9465;SDS011;4771;48.726;9.006;2023-04-15T05:01:44;6.87;;;2.90;;
9465;SDS011;4771;48.726;9.006;2023-04-15T05:04:11;3.67;;;2.70;;
9465;SDS011;4771;48.726;9.006;2023-04-15T05:06:38;6.20;;;2.90;;
9465;SDS011;4771;48.726;9.006;2023-04-15T05:09:06;6.33;;;3.10;;
9465;SDS011;4771;48.726;9.006;2023-04-15T05:11:33;4.83;;;2.70;;
9465;SDS011;4771;48.726;9.006;2023-04-15T05:14:00;5.87;;;2.70;;
9465;SDS011;4771;48.726;9.006;2023-04-15T05:16:27;5.33;;;3.00;;
9465;SDS011;4771;48.726;9.006;2023-04-15T05:18:54;9.00;;;2.73;;
9465;SDS011;4771;48.726;9.006;2023-04-15T05:21:21;5.07;;;2.80;;
9465;SDS011;4771;48.726;9.006;2023-04-15T05:23:47;5.83;;;3.00;;
9465;SDS011;4771;48.726;9.006;2023-04-15T05:26:16;6.07;;;3.50;;
9465;SDS011;4771;48.726;9.006;2023-04-15T05:28:43;7.40;;;3.50;;
9465;SDS011;4771;48.726;9.006;2023-04-15T05:31:10;7.50;;;4.10;;
9465;SDS011;4771;48.726;9.006;2023-04-15T05:33:37;9.47;;;3.80;;
9465;SDS011;4771;48.726;9.006;2023-04-15T05:36:04;6.30;;;3.10;;
9465;SDS011;4771;48.726;9.006;2023-04-15T05:38:32;6.60;;;3.70;;
9465;SDS011;4771;48.726;9.006;2023-04-15T05:40:59;4.63;;;3.00;;
9465;SDS011;4771;48.726;9.006;2023-04-15T05:43:27;4.20;;;2.70;;
9465;SDS011;4771;48.726;9.006;2023-04-15T05:45:54;5.10;;;3.20;;
9465;SDS011;4771;48.726;9.006;2023-04-15T05:48:21;7.17;;;3.03;;
9465;SDS011;4771;48.726;9.006;2023-04-15T05:50:48;5.20;;;3.30;;
9465;SDS011;4771;48.726;9.006;2023-04-15T05:53:15;7.80;;;3.87;;
9465;SDS011;4771;48.726;9.006;2023-04-15T05:55:42;7.40;;;3.37;;
9465;SDS011;4771;48.726;9.006;2023-04-15T05:58:09;6.37;;;3.23;;
9465;SDS011;4771;48.726;9.006;2023-04-15T06:00:38;5.03;;;3.13;;
9465;SDS011;4771;48.726;9.006;2023-04-15T06:03:04;7.93;;;3.20;;
9465;SDS011;4771;48.726;9.006;2023-04-15T06:05:31;5.93;;;3.00;;
9465;SDS011;4771;48.726;9.006;2023-04-15T06:07:58;8.53;;;3.50;;
9465;SDS011;4771;48.726;9.006;2023-04-15T06:10:25;5.60;;;3.03;;
9465;SDS011;4771;48.726;9.006;2023-04-15T06:12:52;5.10;;;3.03;;
9465;SDS011;4771;48.726;9.006;2023-04-15T06:15:19;6.27;;;3.03;;
9465;SDS011;4771;48.726;9.006;2023-04-15T06:17:47;6.27;;;3.13;;
9465;SDS011;4771;48.726;9.006;2023-04-15T06:20:14;8.80;;;3.67;;
9465;SDS011;4771;48.726;9.006;2023-04-15T06:22:41;6.50;;;2.87;;
9465;SDS011;4771;48.726;9.006;2023-04-15T06:25:08;4.57;;;2.90;;
9465;SDS011;4771;48.726;9.006;2023-04-15T06:27:35;4.83;;;3.00;;
9465;SDS011;4771;48.726;9.006;2023-04-15T06:30:02;6.50;;;3.00;;
9465;SDS011;4771;48.726;9.006;2023-04-15T06:32:30;7.67;;;3.60;;
9465;SDS011;4771;48.726;9.006;2023-04-15T06:34:59;7.77;;;3.40;;
9465;SDS011;4771;48.726;9.006;2023-04-15T06:37:26;5.83;;;3.07;;
9465;SDS011;4771;48.726;9.006;2023-04-15T06:39:53;4.07;;;2.80;;
9465;SDS011;4771;48.726;9.006;2023-04-15T06:42:20;5.40;;;2.80;;
9465;SDS011;4771;48.726;9.006;2023-04-15T06:44:47;6.70;;;3.40;;
9465;SDS011;4771;48.726;9.006;2023-04-15T06:47:15;6.97;;;3.00;;
9465;SDS011;4771;48.726;9.006;2023-04-15T06:49:42;4.77;;;3.00;;
9465;SDS011;4771;48.726;9.006;2023-04-15T06:52:10;5.17;;;2.90;;
9465;SDS011;4771;48.726;9.006;2023-04-15T06:54:37;8.57;;;3.67;;
9465;SDS011;4771;48.726;9.006;2023-04-15T06:57:04;7.37;;;3.13;;
9465;SDS011;4771;48.726;9.006;2023-04-15T06:59:31;5.07;;;3.47;;
9465;SDS011;4771;48.726;9.006;2023-04-15T07:01:58;4.83;;;3.37;;
9465;SDS011;4771;48.726;9.006;2023-04-15T07:04:25;7.07;;;3.17;;
9465;SDS011;4771;48.726;9.006;2023-04-15T07:06:52;6.23;;;3.27;;
9465;SDS011;4771;48.726;9.006;2023-04-15T07:09:22;7.47;;;3.17;;
9465;SDS011;4771;48.726;9.006;2023-04-15T07:11:49;6.13;;;3.60;;
9465;SDS011;4771;48.726;9.006;2023-04-15T07:14:16;5.07;;;3.20;;
9465;SDS011;4771;48.726;9.006;2023-04-15T07:16:43;6.13;;;3.30;;
9465;SDS011;4771;48.726;9.006;2023-04-15T07:19:10;6.33;;;3.20;;
9465;SDS011;4771;48.726;9.006;2023-04-15T07:21:37;4.80;;;3.07;;
9465;SDS011;4771;48.726;9.006;2023-04-15T07:24:04;6.00;;;3.17;;
9465;SDS011;4771;48.726;9.006;2023-04-15T07:26:33;6.97;;;3.20;;
9465;SDS011;4771;48.726;9.006;2023-04-15T07:28:59;5.87;;;2.80;;
9465;SDS011;4771;48.726;9.006;2023-04-15T07:31:26;7.33;;;3.17;;
9465;SDS011;4771;48.726;9.006;2023-04-15T07:33:53;7.47;;;3.33;;
9465;SDS011;4771;48.726;9.006;2023-04-15T07:36:20;6.20;;;3.27;;
9465;SDS011;4771;48.726;9.006;2023-04-15T07:38:47;3.23;;;2.60;;
9465;SDS011;4771;48.726;9.006;2023-04-15T07:41:14;4.93;;;3.00;;
9465;SDS011;4771;48.726;9.006;2023-04-15T07:43:42;4.87;;;2.90;;
9465;SDS011;4771;48.726;9.006;2023-04-15T07:46:10;7.60;;;3.47;;
9465;SDS011;4771;48.726;9.006;2023-04-15T07:48:36;7.40;;;3.10;;
9465;SDS011;4771;48.726;9.006;2023-04-15T07:51:03;4.57;;;2.20;;
9465;SDS011;4771;48.726;9.006;2023-04-15T07:53:31;4.30;;;2.37;;
9465;SDS011;4771;48.726;9.006;2023-04-15T07:55:58;3.83;;;1.83;;
9465;SDS011;4771;48.726;9.006;2023-04-15T07:58:24;4.07;;;2.10;;
9465;SDS011;4771;48.726;9.006;2023-04-15T08:00:53;6.07;;;2.50;;
9465;SDS011;4771;48.726;9.006;2023-04-15T08:03:21;5.27;;;2.10;;
9465;SDS011;4771;48.726;9.006;2023-04-15T08:05:48;6.67;;;2.60;;
9465;SDS011;4771;48.726;9.006;2023-04-15T08:08:15;4.33;;;2.10;;
9465;SDS011;4771;48.726;9.006;2023-04-15T08:10:42;5.37;;;2.00;;
9465;SDS011;4771;48.726;9.006;2023-04-15T08:13:09;6.47;;;2.43;;
9465;SDS011;4771;48.726;9.006;2023-04-15T08:15:35;4.23;;;1.73;;
9465;SDS011;4771;48.726;9.006;2023-04-15T08:18:04;6.47;;;2.07;;
9465;SDS011;4771;48.726;9.006;2023-04-15T08:20:31;5.93;;;2.00;;
9465;SDS011;4771;48.726;9.006;2023-04-15T08:22:58;4.93;;;1.90;;
9465;SDS011;4771;48.726;9.006;2023-04-15T08:25:25;6.50;;;1.90;;
9465;SDS011;4771;48.726;9.006;2023-04-15T08:27:53;4.90;;;1.83;;
9465;SDS011;4771;48.726;9.006;2023-04-15T08:30:21;3.77;;;2.10;;
9465;SDS011;4771;48.726;9.006;2023-04-15T08:32:49;3.90;;;1.70;;
9465;SDS011;4771;48.726;9.006;2023-04-15T08:35:17;4.50;;;1.70;;
9465;SDS011;4771;48.726;9.006;2023-04-15T08:37:44;4.97;;;1.80;;
9465;SDS011;4771;48.726;9.006;2023-04-15T08:40:11;3.77;;;1.90;;
9465;SDS011;4771;48.726;9.006;2023-04-15T08:42:40;5.27;;;1.77;;
9465;SDS011;4771;48.726;9.006;2023-04-15T08:45:10;5.57;;;1.70;;
9465;SDS011;4771;48.726;9.006;2023-04-15T08:47:37;3.70;;;1.90;;
9465;SDS011;4771;48.726;9.006;2023-04-15T08:50:07;3.57;;;1.60;;
9465;SDS011;4771;48.726;9.006;2023-04-15T08:52:37;3.83;;;1.70;;
9465;SDS011;4771;48.726;9.006;2023-04-15T08:55:05;3.53;;;1.57;;
9465;SDS011;4771;48.726;9.006;2023-04-15T08:57:34;3.23;;;1.63;;
9465;SDS011;4771;48.726;9.006;2023-04-15T09:00:02;2.43;;;1.50;;
9465;SDS011;4771;48.726;9.006;2023-04-15T09:02:30;3.43;;;1.60;;
9465;SDS011;4771;48.726;9.006;2023-04-15T09:04:57;5.25;;;1.83;;
9465;SDS011;4771;48.726;9.006;2023-04-15T09:07:24;2.33;;;1.60;;
9465;SDS011;4771;48.726;9.006;2023-04-15T09:09:53;3.07;;;1.67;;
9465;SDS011;4771;48.726;9.006;2023-04-15T09:12:20;4.23;;;1.80;;
9465;SDS011;4771;48.726;9.006;2023-04-15T09:14:47;3.57;;;1.80;;
9465;SDS011;4771;48.726;9.006;2023-04-15T09:17:14;2.83;;;1.58;;
9465;SDS011;4771;48.726;9.006;2023-04-15T09:19:44;2.40;;;1.40;;
9465;SDS011;4771;48.726;9.006;2023-04-15T09:22:11;3.50;;;1.50;;
9465;SDS011;4771;48.726;9.006;2023-04-15T09:24:39;3.97;;;1.63;;
9465;SDS011;4771;48.726;9.006;2023-04-15T09:27:09;3.67;;;1.73;;
9465;SDS011;4771;48.726;9.006;2023-04-15T09:29:36;6.97;;;1.80;;
9465;SDS011;4771;48.726;9.006;2023-04-15T09:32:09;2.28;;;1.45;;
9465;SDS011;4771;48.726;9.006;2023-04-15T09:34:37;3.35;;;1.58;;
9465;SDS011;4771;48.726;9.006;2023-04-15T09:37:05;3.17;;;2.00;;
9465;SDS011;4771;48.726;9.006;2023-04-15T09:39:44;3.10;;;1.73;;
9465;SDS011;4771;48.726;9.006;2023-04-15T09:42:16;3.35;;;1.65;;
9465;SDS011;4771;48.726;9.006;2023-04-15T09:44:48;6.28;;;1.90;;
9465;SDS011;4771;48.726;9.006;2023-04-15T09:47:27;7.57;;;1.80;;
9465;SDS011;4771;48.726;9.006;2023-04-15T09:49:55;3.10;;;1.50;;
9465;SDS011;4771;48.726;9.006;2023-04-15T09:52:23;3.10;;;1.70;;
9465;SDS011;4771;48.726;9.006;2023-04-15T09:54:51;2.08;;;1.60;;
9465;SDS011;4771;48.726;9.006;2023-04-15T09:57:21;5.25;;;1.80;;
9465;SDS011;4771;48.726;9.006;2023-04-15T09:59:48;4.70;;;1.83;;
9465;SDS011;4771;48.726;9.006;2023-04-15T10:02:15;3.15;;;1.52;;
9465;SDS011;4771;48.726;9.006;2023-04-15T10:04:44;4.22;;;1.60;;
9465;SDS011;4771;48.726;9.006;2023-04-15T10:07:13;4.88;;;1.63;;
9465;SDS011;4771;48.726;9.006;2023-04-15T10:09:42;3.35;;;1.60;;
9465;SDS011;4771;48.726;9.006;2023-04-15T10:12:11;3.25;;;1.55;;
9465;SDS011;4771;48.726;9.006;2023-04-15T10:14:39;3.20;;;1.85;;
9465;SDS011;4771;48.726;9.006;2023-04-15T10:17:10;3.50;;;1.73;;
9465;SDS011;4771;48.726;9.006;2023-04-15T10:19:37;5.47;;;1.83;;
9465;SDS011;4771;48.726;9.006;2023-04-15T10:22:05;3.25;;;1.77;;
9465;SDS011;4771;48.726;9.006;2023-04-15T10:24:32;3.17;;;1.60;;
9465;SDS011;4771;48.726;9.006;2023-04-15T10:27:00;2.97;;;1.80;;
9465;SDS011;4771;48.726;9.006;2023-04-15T10:29:29;3.75;;;1.60;;
9465;SDS011;4771;48.726;9.006;2023-04-15T10:31:58;2.80;;;1.60;;
9465;SDS011;4771;48.726;9.006;2023-04-15T10:34:26;4.07;;;1.90;;
9465;SDS011;4771;48.726;9.006;2023-04-15T10:36:55;3.38;;;1.70;;
9465;SDS011;4771;48.726;9.006;2023-04-15T10:42:10;8.13;;;2.20;;
9465;SDS011;4771;48.726;9.006;2023-04-15T10:44:40;3.85;;;1.95;;
9465;SDS011;4771;48.726;9.006;2023-04-15T10:47:13;4.30;;;3.60;;
9465;SDS011;4771;48.726;9.006;2023-04-15T10:49:43;4.25;;;2.20;;
9465;SDS011;4771;48.726;9.006;2023-04-15T10:52:13;4.80;;;2.65;;
9465;SDS011;4771;48.726;9.006;2023-04-15T10:54:40;5.15;;;2.50;;
9465;SDS011;4771;48.726;9.006;2023-04-15T10:57:08;5.72;;;2.20;;
9465;SDS011;4771;48.726;9.006;2023-04-15T11:02:38;3.97;;;1.80;;
9465;SDS011;4771;48.726;9.006;2023-04-15T11:05:06;4.65;;;2.17;;
9465;SDS011;4771;48.726;9.006;2023-04-15T11:07:34;6.00;;;2.70;;
9465;SDS011;4771;48.726;9.006;2023-04-15T11:10:02;4.78;;;2.65;;
9465;SDS011;4771;48.726;9.006;2023-04-15T11:12:50;4.35;;;2.15;;
9465;SDS011;4771;48.726;9.006;2023-04-15T11:15:26;4.45;;;2.30;;
9465;SDS011;4771;48.726;9.006;2023-04-15T11:17:56;4.45;;;2.25;;
9465;SDS011;4771;48.726;9.006;2023-04-15T11:20:24;3.63;;;2.00;;
9465;SDS011;4771;48.726;9.006;2023-04-15T11:22:52;4.00;;;1.92;;
9465;SDS011;4771;48.726;9.006;2023-04-15T11:25:22;4.82;;;1.85;;
9465;SDS011;4771;48.726;9.006;2023-04-15T11:27:50;5.70;;;2.42;;
9465;SDS011;4771;48.726;9.006;2023-04-15T11:30:19;2.92;;;1.98;;
9465;SDS011;4771;48.726;9.006;2023-04-15T11:32:47;4.95;;;2.38;;
9465;SDS011;4771;48.726;9.006;2023-04-15T11:35:16;4.03;;;2.08;;
9465;SDS011;4771;48.726;9.006;2023-04-15T11:37:44;3.78;;;1.80;;
9465;SDS011;4771;48.726;9.006;2023-04-15T11:40:12;4.50;;;1.90;;
9465;SDS011;4771;48.726;9.006;2023-04-15T11:42:41;2.92;;;2.00;;
9465;SDS011;4771;48.726;9.006;2023-04-15T11:45:09;3.55;;;1.70;;
9465;SDS011;4771;48.726;9.006;2023-04-15T11:47:37;7.45;;;2.17;;
9465;SDS011;4771;48.726;9.006;2023-04-15T11:50:16;5.82;;;2.40;;
9465;SDS011;4771;48.726;9.006;2023-04-15T11:52:53;3.97;;;1.90;;
9465;SDS011;4771;48.726;9.006;2023-04-15T11:55:21;5.88;;;2.10;;
9465;SDS011;4771;48.726;9.006;2023-04-15T11:57:49;4.38;;;2.20;;
9465;SDS011;4771;48.726;9.006;2023-04-15T12:00:16;5.07;;;2.15;;
9465;SDS011;4771;48.726;9.006;2023-04-15T12:02:45;5.35;;;2.10;;
9465;SDS011;4771;48.726;9.006;2023-04-15T12:05:12;5.13;;;2.00;;
9465;SDS011;4771;48.726;9.006;2023-04-15T12:07:58;7.95;;;2.33;;
9465;SDS011;4771;48.726;9.006;2023-04-15T12:10:25;5.57;;;2.38;;
9465;SDS011;4771;48.726;9.006;2023-04-15T12:12:52;7.43;;;2.35;;
9465;SDS011;4771;48.726;9.006;2023-04-15T12:15:20;4.82;;;2.35;;
9465;SDS011;4771;48.726;9.006;2023-04-15T12:17:48;4.45;;;2.35;;
9465;SDS011;4771;48.726;9.006;2023-04-15T12:20:19;3.22;;;2.22;;
9465;SDS011;4771;48.726;9.006;2023-04-15T12:22:50;6.25;;;2.75;;
9465;SDS011;4771;48.726;9.006;2023-04-15T12:25:18;6.55;;;3.08;;
9465;SDS011;4771;48.726;9.006;2023-04-15T12:27:59;7.20;;;2.75;;
9465;SDS011;4771;48.726;9.006;2023-04-15T12:30:26;6.15;;;2.60;;
9465;SDS011;4771;48.726;9.006;2023-04-15T12:32:53;4.03;;;2.42;;
9465;SDS011;4771;48.726;9.006;2023-04-15T12:35:20;6.22;;;2.65;;
9465;SDS011;4771;48.726;9.006;2023-04-15T12:37:47;4.93;;;2.70;;
9465;SDS011;4771;48.726;9.006;2023-04-15T12:40:17;6.32;;;2.75;;
9465;SDS011;4771;48.726;9.006;2023-04-15T12:42:46;6.15;;;2.65;;
9465;SDS011;4771;48.726;9.006;2023-04-15T12:45:13;4.93;;;2.53;;
9465;SDS011;4771;48.726;9.006;2023-04-15T12:47:40;5.32;;;2.60;;
9465;SDS011;4771;48.726;9.006;2023-04-15T12:50:07;5.82;;;2.90;;
9465;SDS011;4771;48.726;9.006;2023-04-15T12:52:34;4.57;;;2.70;;
9465;SDS011;4771;48.726;9.006;2023-04-15T12:55:01;5.45;;;2.65;;
9465;SDS011;4771;48.726;9.006;2023-04-15T12:57:29;3.92;;;2.60;;
9465;SDS011;4771;48.726;9.006;2023-04-15T12:59:56;3.90;;;2.25;;
9465;SDS011;4771;48.726;9.006;2023-04-15T13:02:23;4.47;;;2.40;;
9465;SDS011;4771;48.726;9.006;2023-04-15T13:04:52;2.50;;;2.10;;
9465;SDS011;4771;48.726;9.006;2023-04-15T13:07:19;5.38;;;2.25;;
9465;SDS011;4771;48.726;9.006;2023-04-15T13:09:46;4.80;;;2.40;;
9465;SDS011;4771;48.726;9.006;2023-04-15T13:12:13;3.95;;;2.20;;
9465;SDS011;4771;48.726;9.006;2023-04-15T13:14:41;5.53;;;2.10;;
9465;SDS011;4771;48.726;9.006;2023-04-15T13:17:09;3.40;;;2.30;;
9465;SDS011;4771;48.726;9.006;2023-04-15T13:19:37;3.90;;;2.60;;
9465;SDS011;4771;48.726;9.006;2023-04-15T13:22:04;7.78;;;2.42;;
9465;SDS011;4771;48.726;9.006;2023-04-15T13:24:32;4.75;;;2.50;;
9465;SDS011;4771;48.726;9.006;2023-04-15T13:26:59;5.53;;;2.45;;
9465;SDS011;4771;48.726;9.006;2023-04-15T13:29:26;2.53;;;2.17;;
9465;SDS011;4771;48.726;9.006;2023-04-15T13:31:54;4.75;;;2.30;;
9465;SDS011;4771;48.726;9.006;2023-04-15T13:34:22;3.70;;;2.63;;
9465;SDS011;4771;48.726;9.006;2023-04-15T13:36:49;5.03;;;1.98;;
9465;SDS011;4771;48.726;9.006;2023-04-15T13:39:16;8.73;;;3.15;;
9465;SDS011;4771;48.726;9.006;2023-04-15T13:41:42;6.07;;;2.92;;
9465;SDS011;4771;48.726;9.006;2023-04-15T13:44:10;3.92;;;2.53;;
9465;SDS011;4771;48.726;9.006;2023-04-15T13:46:37;4.22;;;2.17;;
9465;SDS011;4771;48.726;9.006;2023-04-15T13:49:07;6.28;;;2.50;;
9465;SDS011;4771;48.726;9.006;2023-04-15T13:51:34;7.82;;;2.75;;
9465;SDS011;4771;48.726;9.006;2023-04-15T13:54:01;3.97;;;1.92;;
9465;SDS011;4771;48.726;9.006;2023-04-15T13:56:28;3.85;;;1.90;;
9465;SDS011;4771;48.726;9.006;2023-04-15T13:58:55;3.28;;;1.88;;
9465;SDS011;4771;48.726;9.006;2023-04-15T14:01:23;3.58;;;2.30;;
9465;SDS011;4771;48.726;9.006;2023-04-15T14:03:50;4.00;;;1.98;;
9465;SDS011;4771;48.726;9.006;2023-04-15T14:06:18;3.20;;;1.80;;
9465;SDS011;4771;48.726;9.006;2023-04-15T14:08:47;2.88;;;1.50;;
9465;SDS011;4771;48.726;9.006;2023-04-15T14:11:14;3.55;;;1.60;;
9465;SDS011;4771;48.726;9.006;2023-04-15T14:13:41;1.95;;;1.38;;
9465;SDS011;4771;48.726;9.006;2023-04-15T14:16:08;2.90;;;1.38;;
9465;SDS011;4771;48.726;9.006;2023-04-15T14:18:35;1.38;;;1.25;;
9465;SDS011;4771;48.726;9.006;2023-04-15T14:21:02;2.13;;;1.40;;
9465;SDS011;4771;48.726;9.006;2023-04-15T14:23:32;2.35;;;1.42;;
9465;SDS011;4771;48.726;9.006;2023-04-15T14:25:58;3.50;;;1.40;;
9465;SDS011;4771;48.726;9.006;2023-04-15T14:28:25;1.98;;;1.25;;
9465;SDS011;4771;48.726;9.006;2023-04-15T14:30:52;2.00;;;1.40;;
9465;SDS011;4771;48.726;9.006;2023-04-15T14:33:19;2.67;;;1.30;;
9465;SDS011;4771;48.726;9.006;2023-04-15T14:35:48;2.08;;;1.40;;
9465;SDS011;4771;48.726;9.006;2023-04-15T14:38:14;2.83;;;1.60;;
9465;SDS011;4771;48.726;9.006;2023-04-15T14:40:43;2.92;;;1.60;;
9465;SDS011;4771;48.726;9.006;2023-04-15T14:43:10;3.20;;;1.45;;
9465;SDS011;4771;48.726;9.006;2023-04-15T14:45:37;2.47;;;1.70;;
9465;SDS011;4771;48.726;9.006;2023-04-15T14:48:04;3.83;;;1.50;;
9465;SDS011;4771;48.726;9.006;2023-04-15T14:50:33;2.25;;;1.70;;
9465;SDS011;4771;48.726;9.006;2023-04-15T14:53:00;3.70;;;1.98;;
9465;SDS011;4771;48.726;9.006;2023-04-15T14:55:27;3.25;;;1.83;;
9465;SDS011;4771;48.726;9.006;2023-04-15T14:57:56;4.75;;;1.88;;
9465;SDS011;4771;48.726;9.006;2023-04-15T15:00:23;4.82;;;2.47;;
9465;SDS011;4771;48.726;9.006;2023-04-15T15:02:49;4.80;;;2.50;;
9465;SDS011;4771;48.726;9.006;2023-04-15T15:05:16;3.50;;;2.47;;
9465;SDS011;4771;48.726;9.006;2023-04-15T15:07:43;4.00;;;2.40;;
9465;SDS011;4771;48.726;9.006;2023-04-15T15:10:10;2.90;;;2.20;;
9465;SDS011;4771;48.726;9.006;2023-04-15T15:12:37;4.70;;;2.37;;
9465;SDS011;4771;48.726;9.006;2023-04-15T15:15:06;6.10;;;2.30;;
9465;SDS011;4771;48.726;9.006;2023-04-15T15:17:34;2.70;;;2.23;;
9465;SDS011;4771;48.726;9.006;2023-04-15T15:20:01;5.17;;;2.20;;
9465;SDS011;4771;48.726;9.006;2023-04-15T15:22:28;3.80;;;2.20;;
9465;SDS011;4771;48.726;9.006;2023-04-15T15:24:55;4.13;;;2.40;;